Portada
METAR-TAF:

METAR-TAF

Aeropuertos :

Aeropuerto Internacional de Mehrabad

Teherán, Irán

latitud: 35-41N, longitud: 051-21E, altitud: 1204 m

Observación

El informe se hizo hace 24 minutos, a las 01:30 UTC
Viento 4 kt del este-noreste
Temperatura 28°C
Humedad 28%
Presión 1011 hPa
Visibilidad 10 km o más
Escasas nubes a una altura de 4000 ft
Cielo nuboso a una altura de 10000 ft

METAR: OIII 090130Z 07004KT 9999 FEW040 BKN100 28/08 Q1010 A2985

Hora: 06:24 (01:54 UTC)

Pronóstico

El informe se hizo hace 2 horas y 44 minutos, a las 23:10 UTC
Pronóstico válido del 09 a las 00 UTC al 10 a las 06 UTC
Viento 8 kt del este
Visibilidad: 8000 m
Temporalmente
del 09 a las 09 UTC al 09 a las 16 UTC
Escasas nubes a una altura de 3500 ft, Cumulus congestus.
Nubes dispersas a una altura de 10000 ft

TAF: OIII 082310Z 0900/1006 08008KT 8000 NSC TEMPO 0909/0916 FEW035TCU SCT100

Observaciones y pronósticos meteorológicos de más de 4000 aeropuertos (mensajes METAR y TAF).

Los puntos amarillos y rojos representan las estaciones disponibles.

Ponga el ratón en el punto deseado para ver el nombre de la estación.

Haga clic para ver las observaciones y los pronósticos meteorológicos.

Para cambiar el mapa : haga clic en los botones verdes con una cruz de color negro para hacer un zoom, en el botón verde con un guión para alejar o en las flechas verdes para mapas adyacentes.


METAR-TAF: